Time;durP1;ratioP1;P1;durP2;ratioP2;P2;SDS_P1;SDS_P2;PMS_P1;PMS_P2;Temp;Humidity;BMP_temperature;BMP_pressure;BME280_temperature;BME280_humidity;BME280_pressure;Samples;Min_cycle;Max_cycle;Signal;HPM_P1;HPM_P2
2024/01/17 00:04:00;;;;;;;32.95;15.75;;;;;;;-0.12;55.49;99294.09;7766869;32;39929;-80
2024/01/17 00:08:16;;;;;;;28.20;15.45;;;;;;;-0.15;55.75;99293.72;7766670;32;37564;-80
2024/01/17 00:12:33;;;;;;;25.33;14.73;;;;;;;-0.26;56.24;99305.91;7766675;32;37002;-80
2024/01/17 00:16:49;;;;;;;25.52;14.75;;;;;;;-0.40;56.79;99308.66;7765565;32;39435;-80
2024/01/17 00:21:05;;;;;;;29.00;15.82;;;;;;;-0.06;55.69;99295.91;7766637;32;39945;-80
2024/01/17 00:25:22;;;;;;;28.92;15.18;;;;;;;-0.19;56.34;99295.97;7766264;32;38726;-80
2024/01/17 00:29:38;;;;;;;28.65;14.98;;;;;;;-0.10;56.35;99289.34;7766623;32;37827;-80
2024/01/17 00:33:55;;;;;;;26.48;14.55;;;;;;;-0.26;57.19;99292.50;7786849;32;39406;-80
2024/01/17 00:38:11;;;;;;;28.08;15.05;;;;;;;-0.30;57.22;99280.59;7820879;32;40950;-80
2024/01/17 00:42:27;;;;;;;29.83;16.17;;;;;;;-0.20;57.41;99280.94;7820658;32;38757;-80
2024/01/17 00:46:44;;;;;;;28.48;15.55;;;;;;;-0.14;57.46;99281.94;7820819;32;37535;-80
2024/01/17 00:51:00;;;;;;;31.20;15.98;;;;;;;-0.37;57.97;99274.44;7806864;32;39008;-80
2024/01/17 00:55:16;;;;;;;26.50;14.70;;;;;;;-0.11;57.32;99281.53;7820732;32;39716;-80
2024/01/17 00:59:33;;;;;;;26.98;14.07;;;;;;;-0.27;57.96;99277.50;8038107;26;38755;-81
2024/01/17 01:03:49;;;;;;;25.80;15.00;;;;;;;-0.31;58.22;99289.66;7751756;32;36873;-81
2024/01/17 01:08:06;;;;;;;21.87;13.85;;;;;;;-0.18;57.71;99281.56;7766149;32;40020;-81
2024/01/17 01:12:22;;;;;;;22.55;12.88;;;;;;;-0.14;57.52;99274.72;7766042;32;40945;-81
2024/01/17 01:16:38;;;;;;;27.85;14.10;;;;;;;-0.41;58.75;99274.88;7752522;32;37998;-81
2024/01/17 01:20:55;;;;;;;20.98;12.52;;;;;;;-0.35;58.97;99277.72;7739152;32;38004;-81
2024/01/17 01:25:11;;;;;;;23.40;14.52;;;;;;;-0.56;59.81;99276.97;7738800;32;39078;-81
2024/01/17 01:29:28;;;;;;;23.38;14.57;;;;;;;-0.32;59.05;99279.97;7738868;32;39996;-82
2024/01/17 01:33:45;;;;;;;27.37;14.00;;;;;;;-0.55;59.80;99275.97;7738721;32;38145;-79
2024/01/17 01:38:02;;;;;;;24.75;14.35;;;;;;;-0.38;59.66;99270.91;7738812;32;37355;-79
2024/01/17 01:42:18;;;;;;;21.20;13.70;;;;;;;-0.43;59.82;99268.06;7738697;32;39340;-82
2024/01/17 01:46:34;;;;;;;25.27;13.73;;;;;;;-0.22;61.88;99253.56;7738527;32;39936;-82
2024/01/17 01:50:51;;;;;;;26.73;14.45;;;;;;;-0.10;59.29;99251.03;7724802;32;37975;-82
2024/01/17 01:55:07;;;;;;;23.98;13.43;;;;;;;-0.34;59.19;99245.38;7738784;32;36906;-82
2024/01/17 01:59:24;;;;;;;23.20;13.40;;;;;;;-0.41;59.35;99244.59;7754798;32;39486;-82
2024/01/17 02:03:41;;;;;;;24.80;13.85;;;;;;;-0.36;59.35;99241.25;7765328;32;40002;-82
2024/01/17 02:07:57;;;;;;;21.02;12.77;;;;;;;-0.24;58.88;99239.56;7765268;32;38162;-82
2024/01/17 02:12:14;;;;;;;22.25;13.68;;;;;;;-0.22;58.52;99222.22;7765306;32;38247;-82
2024/01/17 02:16:30;;;;;;;26.87;13.90;;;;;;;-0.25;58.64;99217.28;7764114;32;39378;-82
2024/01/17 02:20:47;;;;;;;18.67;12.80;;;;;;;-0.29;58.74;99215.28;7763876;32;40923;-81
2024/01/17 02:25:06;;;;;;;21.87;12.45;;;;;;;-0.28;58.65;99200.81;7765188;32;37774;-82
2024/01/17 02:29:22;;;;;;;23.38;13.07;;;;;;;-0.27;58.47;99194.44;7765177;32;37307;-82
2024/01/17 02:33:39;;;;;;;25.92;12.50;;;;;;;-0.06;57.72;99188.72;7765094;32;39134;-82
2024/01/17 02:37:56;;;;;;;21.67;12.30;;;;;;;-0.10;57.59;99184.84;7749876;32;40005;-81
2024/01/17 02:42:12;;;;;;;20.12;11.00;;;;;;;-0.06;57.32;99188.72;7738138;32;37990;-82
2024/01/17 02:46:29;;;;;;;22.95;12.98;;;;;;;-0.16;57.37;99174.97;7737901;32;37501;-82
2024/01/17 02:50:45;;;;;;;22.80;12.02;;;;;;;-0.32;57.56;99178.19;7724066;32;39860;-82
2024/01/17 02:55:02;;;;;;;20.90;11.98;;;;;;;-0.11;56.69;99175.16;7737875;32;40857;-82
2024/01/17 02:59:18;;;;;;;20.00;11.43;;;;;;;-0.10;56.43;99174.12;7737624;32;37867;-82
2024/01/17 03:03:34;;;;;;;24.02;12.40;;;;;;;-0.19;56.26;99183.44;7756153;32;37129;-81
2024/01/17 03:07:50;;;;;;;20.12;11.68;;;;;;;-0.20;55.82;99171.09;7764618;32;39591;-81
2024/01/17 03:12:07;;;;;;;20.00;12.05;;;;;;;-0.36;56.05;99176.97;7764523;32;39949;-82
2024/01/17 03:16:23;;;;;;;23.45;12.70;;;;;;;-0.26;55.58;99177.31;7764363;32;38500;-82
2024/01/17 03:20:40;;;;;;;24.15;11.32;;;;;;;-0.28;55.30;99184.75;7748321;32;37238;-82
2024/01/17 03:24:57;;;;;;;19.58;12.20;;;;;;;-0.20;54.66;99171.09;7737271;32;39439;-80
2024/01/17 03:29:13;;;;;;;18.60;11.23;;;;;;;-0.24;54.27;99180.63;7736769;32;40762;-81
2024/01/17 03:33:29;;;;;;;20.67;11.32;;;;;;;-0.26;54.16;99171.97;7736901;32;38655;-81
2024/01/17 03:37:46;;;;;;;20.80;11.52;;;;;;;-0.32;54.01;99178.19;7736899;32;38256;-82
2024/01/17 03:42:02;;;;;;;18.85;10.75;;;;;;;-0.29;54.04;99173.22;7736871;32;39417;-83
2024/01/17 03:46:18;;;;;;;18.73;11.00;;;;;;;-0.27;53.87;99154.25;7744191;32;39979;-81
2024/01/17 03:50:35;;;;;;;20.30;11.07;;;;;;;-0.36;54.00;99139.47;7763512;32;37955;-81
2024/01/17 03:54:51;;;;;;;20.20;11.02;;;;;;;-0.43;54.15;99140.34;7763610;32;36925;-82
2024/01/17 03:59:07;;;;;;;16.33;10.32;;;;;;;-0.46;54.16;99127.38;7762947;32;39951;-82
2024/01/17 04:03:24;;;;;;;16.55;10.35;;;;;;;-0.53;54.52;99117.78;7763122;32;40915;-82
2024/01/17 04:07:40;;;;;;;21.70;11.48;;;;;;;-0.43;54.40;99123.44;7763321;32;37898;-82
2024/01/17 04:11:56;;;;;;;17.87;10.60;;;;;;;-0.64;54.72;99108.53;7762823;32;37940;-82
2024/01/17 04:16:12;;;;;;;20.10;11.27;;;;;;;-0.66;54.88;99107.94;7762996;32;39936;-83
2024/01/17 04:20:29;;;;;;;17.35;11.15;;;;;;;-0.81;55.49;99095.69;7762901;32;40702;-82
2024/01/17 04:24:45;;;;;;;20.65;11.93;;;;;;;-1.05;56.16;99099.94;7762711;32;38470;-81
2024/01/17 04:29:01;;;;;;;21.52;12.68;;;;;;;-0.83;55.89;99089.72;7762812;32;37092;-82
2024/01/17 04:33:18;;;;;;;21.45;11.90;;;;;;;-1.03;56.43;99089.00;7749831;32;39560;-82
2024/01/17 04:37:34;;;;;;;22.45;10.88;;;;;;;-1.09;56.75;99095.19;7735592;32;40879;-82
2024/01/17 04:41:51;;;;;;;25.45;12.73;;;;;;;-1.18;56.97;99090.09;7739382;32;38697;-82
2024/01/17 04:46:14;;;;;;;21.95;11.60;;;;;;;-1.18;56.99;99078.56;7747072;32;36931;-82
2024/01/17 04:50:31;;;;;;;20.75;12.75;;;;;;;-1.39;57.36;99077.03;7766391;32;40175;-81
2024/01/17 04:54:48;;;;;;;22.37;12.05;;;;;;;-1.20;57.04;99076.09;7766231;32;40736;-82
2024/01/17 04:59:05;;;;;;;19.25;11.95;;;;;;;-1.23;57.23;99081.06;7765913;32;38734;-82
2024/01/17 05:03:21;;;;;;;22.20;12.10;;;;;;;-1.27;57.38;99077.19;7766223;32;37384;-82
2024/01/17 05:07:37;;;;;;;18.95;12.27;;;;;;;-1.46;57.83;99077.03;7766244;32;39169;-82
2024/01/17 05:11:56;;;;;;;24.98;13.27;;;;;;;-1.29;57.46;99081.91;7764422;32;39823;-82
2024/01/17 05:16:12;;;;;;;26.10;13.23;;;;;;;-1.00;56.54;99065.31;7766009;32;37961;-82
2024/01/17 05:20:29;;;;;;;22.58;13.35;;;;;;;-0.97;56.44;99064.91;7758286;32;38131;-83
2024/01/17 05:24:45;;;;;;;22.70;12.20;;;;;;;-1.11;56.74;99065.97;7738933;32;39845;-82
2024/01/17 05:29:01;;;;;;;20.85;12.30;;;;;;;-1.04;56.44;99047.22;7738884;32;40577;-82
2024/01/17 05:33:17;;;;;;;21.83;12.80;;;;;;;-1.02;56.37;99050.50;7738734;32;38007;-82
2024/01/17 05:37:34;;;;;;;24.45;12.43;;;;;;;-1.12;56.76;99063.53;7738832;32;37710;-83
2024/01/17 05:41:50;;;;;;;22.37;12.13;;;;;;;-0.96;56.39;99060.38;7738569;32;39391;-82
2024/01/17 05:46:07;;;;;;;20.98;12.73;;;;;;;-1.11;56.80;99057.16;7738596;32;40933;-82
2024/01/17 05:50:24;;;;;;;20.37;12.57;;;;;;;-0.97;56.14;99058.72;7738449;32;38047;-82
2024/01/17 05:54:40;;;;;;;21.77;12.98;;;;;;;-1.04;56.53;99049.91;7739413;32;37976;-83
2024/01/17 05:58:56;;;;;;;24.52;14.00;;;;;;;-1.06;56.54;99044.75;7738377;32;40079;-82
2024/01/17 06:03:13;;;;;;;25.48;14.02;;;;;;;-1.25;57.33;99043.03;7738389;32;40878;-82
2024/01/17 06:07:30;;;;;;;23.08;13.25;;;;;;;-1.26;57.46;99036.84;7755380;32;37804;-83
2024/01/17 06:11:47;;;;;;;24.52;14.30;;;;;;;-1.27;57.25;99064.63;7763472;32;37404;-82
2024/01/17 06:16:03;;;;;;;26.33;14.30;;;;;;;-1.18;57.27;99058.00;7759860;32;39072;-82
2024/01/17 06:20:19;;;;;;;25.35;13.13;;;;;;;-1.26;57.60;99068.09;7738361;32;39772;-81
2024/01/17 06:24:36;;;;;;;20.45;12.23;;;;;;;-1.07;57.46;99069.06;7737974;32;38840;-82
2024/01/17 06:28:52;;;;;;;26.33;13.15;;;;;;;-0.90;56.91;99053.31;7762054;32;38261;-82
2024/01/17 06:33:08;;;;;;;24.35;12.48;;;;;;;-1.60;58.33;99065.56;7765132;32;39435;-82
2024/01/17 06:37:25;;;;;;;24.40;13.13;;;;;;;-1.11;57.96;99073.19;7765027;32;40774;-82
2024/01/17 06:41:41;;;;;;;26.45;12.37;;;;;;;-1.18;58.36;99063.34;7764902;32;38435;-82
2024/01/17 06:45:58;;;;;;;29.05;15.25;;;;;;;-1.06;58.00;99065.34;7759664;32;38085;-82
2024/01/17 06:50:14;;;;;;;23.98;13.32;;;;;;;-1.13;58.52;99076.09;7737906;32;39274;-82
2024/01/17 06:54:31;;;;;;;22.55;13.20;;;;;;;-0.89;58.05;99061.13;7755825;32;40907;-78
2024/01/17 06:58:47;;;;;;;24.48;13.18;;;;;;;-1.08;58.91;99062.87;7764619;32;37599;-80
2024/01/17 07:03:04;;;;;;;24.12;12.98;;;;;;;-0.83;58.59;99067.47;7763552;32;37296;-80
2024/01/17 07:07:20;;;;;;;22.95;12.95;;;;;;;-1.01;58.98;99061.00;7764454;32;39325;-82
2024/01/17 07:11:37;;;;;;;27.23;13.43;;;;;;;-1.00;59.21;99051.09;7764425;32;40856;-82
2024/01/17 07:15:54;;;;;;;24.25;13.98;;;;;;;-0.88;59.15;99053.91;7764730;32;37919;-82
2024/01/17 07:20:11;;;;;;;21.67;13.27;;;;;;;-1.33;60.42;99052.09;7764424;32;37952;-83
2024/01/17 07:24:27;;;;;;;20.90;12.90;;;;;;;-0.85;59.49;99035.56;7764256;32;39796;-83
2024/01/17 07:28:43;;;;;;;25.40;12.98;;;;;;;-0.78;59.15;99025.66;7764364;32;39903;-83
2024/01/17 07:33:00;;;;;;;21.83;13.25;;;;;;;-0.97;59.75;99021.25;7764076;32;37983;-81
2024/01/17 07:37:16;;;;;;;24.60;12.98;;;;;;;-1.03;63.72;99016.78;7764020;32;37955;-83
2024/01/17 07:41:36;;;;;;;30.92;12.82;;;;;;;-0.89;59.45;99004.94;7764043;32;40234;-81
2024/01/17 07:45:52;;;;;;;22.58;13.35;;;;;;;-0.42;67.06;98997.34;7763716;32;40755;-84
2024/01/17 07:50:09;;;;;;;26.33;13.27;;;;;;;0.09;61.97;98991.94;7763555;32;38740;-83
2024/01/17 07:54:26;;;;;;;21.37;13.40;;;;;;;-0.04;57.01;98966.91;7763684;32;38250;-83
2024/01/17 07:58:42;;;;;;;20.90;12.15;;;;;;;-0.47;58.01;98973.09;7763321;32;40035;-83
2024/01/17 08:02:58;;;;;;;27.80;13.60;;;;;;;-0.34;57.73;98972.16;7749277;32;39747;-82
2024/01/17 08:07:15;;;;;;;24.17;13.00;;;;;;;-0.51;58.29;98977.25;7763056;32;38436;-83
2024/01/17 08:11:31;;;;;;;25.88;13.98;;;;;;;-0.54;58.29;98972.34;7763177;32;37003;-83
2024/01/17 08:15:47;;;;;;;23.75;13.00;;;;;;;-0.43;58.12;98968.09;7766054;32;40228;-83
2024/01/17 08:20:06;;;;;;;20.98;12.80;;;;;;;-0.80;58.99;98952.78;7766687;32;40100;-83
2024/01/17 08:24:23;;;;;;;23.27;13.07;;;;;;;-0.77;59.28;98960.38;7766626;32;37022;-80
2024/01/17 08:28:39;;;;;;;23.27;13.77;;;;;;;-0.63;59.10;98965.63;7766665;32;37958;-80
2024/01/17 08:32:57;;;;;;;21.80;12.65;;;;;;;-0.65;59.27;98965.84;7766550;32;39484;-82
2024/01/17 08:37:13;;;;;;;21.05;12.60;;;;;;;-0.84;60.04;98962.28;7766581;32;40612;-82
2024/01/17 08:41:30;;;;;;;22.65;12.88;;;;;;;-0.62;59.15;98964.56;7766366;32;38846;-82
2024/01/17 08:45:46;;;;;;;23.67;13.70;;;;;;;-0.54;58.89;98966.16;7766318;32;37966;-83
2024/01/17 08:50:02;;;;;;;23.15;12.20;;;;;;;-0.50;58.86;98975.38;7766338;32;39418;-82
2024/01/17 08:54:19;;;;;;;24.12;12.98;;;;;;;-0.90;60.13;98971.19;7766279;32;39897;-83
2024/01/17 08:58:35;;;;;;;26.80;13.15;;;;;;;-0.63;59.57;98962.94;7766067;32;37620;-82
2024/01/17 09:02:51;;;;;;;19.90;11.50;;;;;;;-0.90;59.33;98948.97;7766220;32;37185;-82
2024/01/17 09:07:08;;;;;;;21.48;12.18;;;;;;;-0.49;59.06;98955.63;7766034;32;40223;-83
2024/01/17 09:11:25;;;;;;;24.77;12.45;;;;;;;-0.32;59.12;98953.19;7766024;32;40864;-82
2024/01/17 09:15:41;;;;;;;19.85;10.80;;;;;;;-0.14;61.02;98953.19;7765818;32;38432;-82
2024/01/17 09:19:57;;;;;;;17.73;11.18;;;;;;;-0.22;59.48;98940.13;7763084;32;38435;-82
2024/01/17 09:24:14;;;;;;;22.77;12.10;;;;;;;-0.34;59.84;98955.28;7762471;32;39114;-82
2024/01/17 09:28:30;;;;;;;21.20;11.45;;;;;;;-0.30;59.65;98948.44;7764282;32;40696;-82
2024/01/17 09:32:47;;;;;;;19.65;11.68;;;;;;;-0.31;60.17;98931.56;7765652;32;37911;-82
2024/01/17 09:37:05;;;;;;;24.37;12.18;;;;;;;-0.34;60.68;98933.84;7765788;32;37134;-82
2024/01/17 09:41:21;;;;;;;30.17;12.15;;;;;;;-0.40;61.69;98919.47;7765686;32;39821;-82
2024/01/17 09:45:38;;;;;;;22.00;12.05;;;;;;;-0.55;63.05;98914.50;7765484;32;40805;-81
2024/01/17 09:49:55;;;;;;;20.20;11.70;;;;;;;-0.43;62.73;98910.03;7751579;32;37730;-83
2024/01/17 09:54:12;;;;;;;19.83;12.73;;;;;;;-0.90;64.23;98901.59;7765405;32;37156;-82
2024/01/17 09:58:38;;;;;;;23.60;12.60;;;;;;;-0.42;62.78;98884.06;7765303;32;39678;-82
2024/01/17 10:02:55;;;;;;;18.73;11.65;;;;;;;-0.21;62.34;98864.03;7765333;32;40811;-82
2024/01/17 10:07:12;;;;;;;19.90;11.63;;;;;;;-0.08;61.72;98845.13;7765296;32;37651;-82
2024/01/17 10:11:28;;;;;;;27.85;13.27;;;;;;;-0.48;63.01;98834.91;7751747;32;38011;-81
2024/01/17 10:15:46;;;;;;;24.52;13.38;;;;;;;-0.33;62.79;98813.09;7751467;32;39362;-82
2024/01/17 10:20:03;;;;;;;20.48;11.77;;;;;;;-0.61;63.56;98810.94;7765307;32;40771;-83
2024/01/17 10:24:20;;;;;;;17.85;11.00;;;;;;;-0.67;64.53;98796.59;7760054;32;167354;-82
2024/01/17 10:28:36;;;;;;;23.98;12.63;;;;;;;-0.32;63.54;98771.06;7765187;32;37251;-81
2024/01/17 10:32:55;;;;;;;24.77;12.50;;;;;;;-0.37;64.23;98766.37;7765223;32;40283;-82
2024/01/17 10:37:13;;;;;;;18.62;11.60;;;;;;;-0.41;64.73;98749.94;7763924;32;40860;-81
2024/01/17 10:41:29;;;;;;;22.35;13.00;;;;;;;-0.11;64.29;98741.09;7764904;32;37741;-81
2024/01/17 10:45:46;;;;;;;22.45;12.60;;;;;;;-0.22;64.42;98728.47;7764686;32;37433;-82
2024/01/17 10:50:02;;;;;;;22.10;12.13;;;;;;;-0.13;63.88;98724.44;7765029;32;39324;-82
2024/01/17 10:54:20;;;;;;;16.85;11.10;;;;;;;-0.34;64.75;98714.25;7764995;32;40234;-82
2024/01/17 10:58:37;;;;;;;21.27;12.70;;;;;;;-0.37;65.10;98685.22;7764496;32;38743;-82
2024/01/17 11:02:53;;;;;;;23.42;12.18;;;;;;;-0.07;64.22;98686.00;7764770;32;38080;-82
2024/01/17 11:07:10;;;;;;;21.58;11.20;;;;;;;-0.61;66.15;98674.41;7750885;32;39377;-83
2024/01/17 11:11:28;;;;;;;24.35;12.27;;;;;;;-0.14;64.58;98644.28;7750769;32;40057;-83
2024/01/17 11:15:45;;;;;;;19.15;11.45;;;;;;;-0.32;64.99;98639.81;7764567;32;38673;-83
2024/01/17 11:20:08;;;;;;;19.62;11.65;;;;;;;0.21;63.98;98630.09;7764327;32;37699;-83
2024/01/17 11:24:46;;;;;;;19.25;11.60;;;;;;;0.29;64.02;98624.41;7764308;32;39414;-84
2024/01/17 11:29:28;;;;;;;19.45;11.55;;;;;;;0.33;64.18;98612.97;7763984;32;40887;-82
2024/01/17 11:33:44;;;;;;;23.08;12.15;;;;;;;0.61;63.51;98607.94;7764031;32;38657;-83
2024/01/17 11:38:02;;;;;;;26.05;13.43;;;;;;;0.35;64.48;98610.88;7764000;32;37705;-83
2024/01/17 11:42:20;;;;;;;20.08;11.90;;;;;;;0.36;64.24;98591.06;7763849;32;39858;-83
2024/01/17 11:46:38;;;;;;;19.00;12.35;;;;;;;0.50;63.66;98585.44;7749922;32;38642;-83
2024/01/17 11:51:14;;;;;;;18.10;12.32;;;;;;;0.52;63.82;98600.25;7766990;32;37943;-82
2024/01/17 11:55:31;;;;;;;25.73;14.48;;;;;;;0.49;63.89;98583.81;7766949;32;38013;-83
2024/01/17 12:00:13;;;;;;;19.50;11.85;;;;;;;0.55;63.73;98578.34;7766833;32;40315;-83
2024/01/17 12:04:30;;;;;;;21.27;12.57;;;;;;;0.39;64.12;98556.78;7766935;32;40765;-83
2024/01/17 12:08:46;;;;;;;18.35;11.95;;;;;;;0.36;64.09;98550.84;7752620;32;37842;-83
2024/01/17 12:13:03;;;;;;;21.75;12.43;;;;;;;0.35;64.39;98533.12;7766794;32;37696;-82
2024/01/17 12:17:20;;;;;;;26.00;13.57;;;;;;;0.20;65.32;98535.47;7766735;32;39175;-82
2024/01/17 12:21:40;;;;;;;22.05;12.10;;;;;;;0.35;64.33;98516.22;7766591;32;41040;-82
2024/01/17 12:25:58;;;;;;;23.10;12.63;;;;;;;0.63;63.80;98499.34;7766512;32;37926;-83
2024/01/17 12:30:14;;;;;;;21.37;12.32;;;;;;;0.73;63.34;98488.81;7766619;32;37272;-83
2024/01/17 12:34:31;;;;;;;19.98;11.80;;;;;;;0.68;63.62;98496.78;7766585;32;39556;-81
2024/01/17 12:38:50;;;;;;;23.55;13.10;;;;;;;0.35;64.80;98476.81;7766607;32;41195;-82
2024/01/17 12:43:06;;;;;;;23.05;12.77;;;;;;;0.15;65.46;98473.72;7766435;32;37956;-82
2024/01/17 12:47:23;;;;;;;21.80;12.95;;;;;;;0.54;64.25;98471.28;7752751;32;37142;-82
2024/01/17 12:51:41;;;;;;;20.58;12.30;;;;;;;0.64;64.02;98465.28;7766209;32;39442;-83
2024/01/17 12:56:01;;;;;;;28.05;13.02;;;;;;;0.44;64.36;98452.31;7752693;32;40019;-82
2024/01/17 13:00:24;;;;;;;24.12;12.65;;;;;;;0.91;63.03;98457.47;7764929;32;38119;-82
2024/01/17 13:04:41;;;;;;;;;;;;;;;1.04;62.79;98457.19;7766510;32;37253;-83
2024/01/17 13:09:18;;;;;;;18.08;11.15;;;;;;;0.92;63.35;98451.06;7766448;32;39591;-82
2024/01/17 13:13:38;;;;;;;23.48;12.90;;;;;;;0.88;63.37;98439.16;7766062;32;39938;-83
2024/01/17 13:17:56;;;;;;;25.62;13.40;;;;;;;0.64;64.36;98428.56;7752066;32;38041;-83
2024/01/17 13:22:17;;;;;;;21.80;13.32;;;;;;;0.86;63.76;98426.03;7765950;32;37973;-83
2024/01/17 13:26:35;;;;;;;19.33;11.80;;;;;;;0.58;64.14;98415.31;7765835;32;40041;-83
2024/01/17 13:30:52;;;;;;;22.98;13.32;;;;;;;0.71;64.39;98421.19;7765769;32;40000;-83
2024/01/17 13:35:08;;;;;;;24.37;12.73;;;;;;;0.27;65.87;98426.25;7765518;32;37946;-82
2024/01/17 13:39:28;;;;;;;21.02;13.52;;;;;;;0.72;64.52;98419.31;7765647;32;38217;-83
2024/01/17 13:43:44;;;;;;;26.27;14.07;;;;;;;0.68;64.76;98416.28;7765719;32;39318;-82
2024/01/17 13:48:01;;;;;;;27.40;14.87;;;;;;;0.52;65.43;98409.84;7765558;32;40718;-83
2024/01/17 13:52:20;;;;;;;22.17;13.68;;;;;;;0.27;66.41;98396.75;7765335;32;38684;-83
2024/01/17 13:56:38;;;;;;;28.25;13.93;;;;;;;0.48;65.98;98389.91;7765582;32;37997;-83
2024/01/17 14:00:59;;;;;;;26.37;13.35;;;;;;;0.24;66.49;98389.19;7765277;32;40091;-82
2024/01/17 14:05:17;;;;;;;26.70;15.52;;;;;;;0.65;65.31;98384.59;7765470;32;39971;-83
2024/01/17 14:09:34;;;;;;;25.92;14.35;;;;;;;0.42;66.19;98384.72;7765117;32;38641;-82
2024/01/17 14:13:51;;;;;;;24.55;14.02;;;;;;;0.82;64.51;98375.75;7765288;32;37357;-83
2024/01/17 14:18:13;;;;;;;25.25;14.48;;;;;;;0.37;66.17;98366.66;7765174;32;40115;-83
2024/01/17 14:22:30;;;;;;;27.17;14.10;;;;;;;0.48;66.25;98356.94;7765269;32;39797;-82
2024/01/17 14:26:46;;;;;;;23.83;13.32;;;;;;;0.33;65.85;98376.25;7765199;32;37989;-82
2024/01/17 14:31:03;;;;;;;24.40;13.05;;;;;;;0.92;64.79;98367.88;7765262;32;37206;-83
2024/01/17 14:35:20;;;;;;;21.40;12.95;;;;;;;0.46;67.01;98359.84;7765566;32;39129;-83
2024/01/17 14:39:37;;;;;;;22.35;13.95;;;;;;;0.50;67.91;98365.53;7758972;32;40925;-83
2024/01/17 14:43:53;;;;;;;21.02;12.98;;;;;;;0.62;67.54;98373.53;7738048;32;37900;-83
2024/01/17 14:48:09;;;;;;;23.85;13.05;;;;;;;1.00;66.31;98364.78;7738021;32;37828;-82
2024/01/17 14:52:26;;;;;;;24.35;15.10;;;;;;;0.96;66.12;98368.19;7738147;32;39373;-82
2024/01/17 14:56:43;;;;;;;24.45;13.13;;;;;;;0.83;66.28;98364.78;7737872;32;40049;-82
2024/01/17 15:00:59;;;;;;;23.98;15.18;;;;;;;1.02;65.91;98357.31;7737557;32;37565;-82
2024/01/17 15:05:16;;;;;;;25.83;14.95;;;;;;;1.22;65.67;98353.28;7737825;32;37510;-82
2024/01/17 15:09:36;;;;;;;32.40;15.10;;;;;;;1.27;65.70;98361.44;7737568;32;40287;-82
2024/01/17 15:13:53;;;;;;;29.35;14.85;;;;;;;1.34;65.79;98353.19;7737485;32;40063;-82
2024/01/17 15:18:10;;;;;;;25.55;14.70;;;;;;;1.31;65.97;98338.38;7737293;32;38622;-82
2024/01/17 15:22:29;;;;;;;26.05;14.00;;;;;;;1.35;66.21;98328.00;7736789;32;37288;-82
2024/01/17 15:26:46;;;;;;;26.75;14.93;;;;;;;0.93;67.77;98316.66;7737320;32;40079;-82
2024/01/17 15:31:03;;;;;;;25.62;14.50;;;;;;;1.23;67.04;98322.72;7737260;32;40060;-83
2024/01/17 15:35:19;;;;;;;26.77;15.57;;;;;;;1.25;67.07;98317.91;7737109;32;37648;-82
2024/01/17 15:39:36;;;;;;;27.80;15.07;;;;;;;1.18;67.13;98320.75;7729457;32;37981;-82
2024/01/17 15:43:53;;;;;;;29.70;16.65;;;;;;;1.22;67.03;98316.50;7760568;32;39441;-83
2024/01/17 15:48:09;;;;;;;24.77;14.57;;;;;;;1.35;66.73;98315.38;7763761;32;40778;-83
2024/01/17 15:52:26;;;;;;;23.67;13.85;;;;;;;1.41;66.51;98311.69;7763671;32;37832;-82
2024/01/17 15:56:42;;;;;;;24.70;13.73;;;;;;;1.30;66.72;98304.56;7763675;32;38048;-84
2024/01/17 16:00:58;;;;;;;28.65;14.23;;;;;;;1.50;65.94;98298.63;7749550;32;39467;-84
2024/01/17 16:05:14;;;;;;;26.65;15.30;;;;;;;1.38;66.18;98296.09;7763522;32;40067;-83
2024/01/17 16:09:31;;;;;;;27.05;14.27;;;;;;;1.07;67.51;98287.59;7763191;32;38805;-83
2024/01/17 16:13:47;;;;;;;22.10;12.65;;;;;;;1.26;67.08;98277.41;7763247;32;37048;-84
2024/01/17 16:18:05;;;;;;;23.58;13.98;;;;;;;1.41;66.48;98271.37;7763141;32;39420;-83
2024/01/17 16:22:24;;;;;;;26.15;12.90;;;;;;;1.42;66.67;98270.34;7763003;32;40811;-84
2024/01/17 16:26:44;;;;;;;22.87;13.38;;;;;;;1.31;66.93;98279.31;7762713;32;36834;-85
2024/01/17 16:31:05;;;;;;;25.25;13.50;;;;;;;1.42;66.18;98269.53;7762787;32;38334;-83
2024/01/17 16:35:22;;;;;;;21.62;14.23;;;;;;;1.39;66.76;98259.28;7764617;32;40305;-83
2024/01/17 16:39:38;;;;;;;26.52;13.82;;;;;;;1.60;66.16;98253.09;7766506;32;40006;-84
2024/01/17 16:43:54;;;;;;;26.05;12.82;;;;;;;1.35;66.96;98253.59;7766280;32;36483;-84
2024/01/17 16:48:12;;;;;;;23.08;13.55;;;;;;;1.39;66.92;98237.81;7767626;32;37992;-82
2024/01/17 16:52:30;;;;;;;26.10;14.05;;;;;;;1.28;66.78;98247.63;7766419;32;38556;-82
2024/01/17 16:56:47;;;;;;;23.02;13.77;;;;;;;1.72;65.99;98236.84;7766441;32;39698;-82
2024/01/17 17:01:04;;;;;;;28.00;13.80;;;;;;;1.72;66.17;98252.16;7766011;32;38693;-83
2024/01/17 17:05:21;;;;;;;25.00;13.50;;;;;;;1.80;65.87;98244.47;7766252;32;37952;-84
2024/01/17 17:09:38;;;;;;;24.20;13.98;;;;;;;1.73;66.08;98249.22;7766176;32;40096;-84
2024/01/17 17:13:54;;;;;;;20.12;13.07;;;;;;;1.62;66.49;98250.16;7766049;32;40901;-83
2024/01/17 17:18:15;;;;;;;23.60;13.73;;;;;;;1.82;66.21;98242.31;7782525;32;38761;-83
2024/01/17 17:22:32;;;;;;;26.75;14.23;;;;;;;1.84;65.99;98226.75;7793219;32;37202;-83
2024/01/17 17:26:54;;;;;;;26.37;14.20;;;;;;;1.61;66.81;98235.13;7793144;32;39128;-83
2024/01/17 17:31:12;;;;;;;26.17;15.10;;;;;;;1.80;66.51;98233.72;7793053;32;40457;-83
2024/01/17 17:35:28;;;;;;;27.60;14.85;;;;;;;1.82;66.35;98233.47;7792969;32;38608;-83
2024/01/17 17:39:44;;;;;;;24.90;14.75;;;;;;;1.80;66.57;98247.16;7792969;32;37351;-83
2024/01/17 17:44:00;;;;;;;24.65;13.57;;;;;;;1.79;66.66;98237.44;7793075;32;39406;-83
2024/01/17 17:48:17;;;;;;;27.23;14.23;;;;;;;1.76;66.97;98215.66;7792481;32;39925;-83
2024/01/17 17:52:33;;;;;;;25.45;15.13;;;;;;;1.83;67.04;98217.09;7792766;32;37655;-83
2024/01/17 17:56:50;;;;;;;24.23;14.90;;;;;;;1.67;67.39;98201.84;7792846;32;37541;-83
2024/01/17 18:01:06;;;;;;;25.48;14.70;;;;;;;1.80;67.24;98201.47;7792806;32;40081;-84
2024/01/17 18:05:22;;;;;;;26.85;14.43;;;;;;;1.63;67.31;98203.44;7792618;32;40802;-84
2024/01/17 18:09:38;;;;;;;24.55;15.00;;;;;;;1.75;67.61;98187.19;7792521;32;37883;-84
2024/01/17 18:13:55;;;;;;;23.65;13.45;;;;;;;1.72;67.64;98199.22;7792643;32;37197;-84
2024/01/17 18:18:13;;;;;;;21.12;13.73;;;;;;;1.93;67.21;98188.69;7792624;32;40194;-84
2024/01/17 18:22:30;;;;;;;24.70;14.20;;;;;;;2.13;66.60;98183.47;7792551;32;40757;-84
2024/01/17 18:26:46;;;;;;;24.35;13.88;;;;;;;2.09;66.85;98179.69;7792440;32;38080;-84
2024/01/17 18:31:03;;;;;;;27.13;14.48;;;;;;;1.96;67.47;98169.38;7792286;32;37812;-84
2024/01/17 18:35:19;;;;;;;23.20;13.32;;;;;;;2.17;67.32;98168.44;7792316;32;39643;-84
2024/01/17 18:39:36;;;;;;;25.95;13.50;;;;;;;1.98;67.81;98156.47;7792117;32;39944;-84
2024/01/17 18:43:52;;;;;;;23.62;13.07;;;;;;;2.18;67.71;98170.09;7792403;32;37844;-84
2024/01/17 18:48:08;;;;;;;26.65;15.32;;;;;;;1.95;68.72;98152.44;7792069;32;38030;-84
2024/01/17 18:52:24;;;;;;;27.60;14.25;;;;;;;2.11;68.34;98161.44;7791845;32;40181;-84
2024/01/17 18:56:41;;;;;;;24.95;14.13;;;;;;;2.00;68.61;98136.34;7790778;32;39901;-84
2024/01/17 19:00:57;;;;;;;25.58;14.55;;;;;;;2.27;67.94;98138.16;7791557;32;37566;-83
2024/01/17 19:05:14;;;;;;;27.70;14.38;;;;;;;2.21;68.03;98140.00;7771550;32;37337;-83
2024/01/17 19:09:31;;;;;;;26.23;14.27;;;;;;;2.36;67.57;98154.63;7737548;32;39274;-83
2024/01/17 19:13:47;;;;;;;26.60;14.10;;;;;;;2.18;68.21;98139.72;7737680;32;39740;-83
2024/01/17 19:18:04;;;;;;;30.25;15.07;;;;;;;2.25;68.24;98132.22;7738134;32;37835;-83
2024/01/17 19:22:21;;;;;;;32.80;16.20;;;;;;;2.43;67.76;98120.22;7758886;32;38225;-82
2024/01/17 19:26:37;;;;;;;30.00;16.15;;;;;;;2.52;67.22;98112.47;7764266;32;40070;-83
2024/01/17 19:30:53;;;;;;;28.98;15.60;;;;;;;1.88;69.12;98135.72;7764130;32;40723;-83
2024/01/17 19:35:12;;;;;;;31.58;17.25;;;;;;;2.23;68.94;98108.28;7758016;32;38583;-82
2024/01/17 19:39:28;;;;;;;30.05;16.40;;;;;;;2.41;68.16;98093.59;7738371;32;39407;-83
2024/01/17 19:43:44;;;;;;;36.92;17.40;;;;;;;2.43;68.30;98093.34;7752204;32;40114;-81
2024/01/17 19:48:01;;;;;;;30.80;16.27;;;;;;;1.81;70.64;98087.56;7740877;32;39909;-83
2024/01/17 19:52:17;;;;;;;31.65;17.35;;;;;;;2.24;69.08;98096.47;7737495;32;37639;-83